Time;durP1;ratioP1;P1;durP2;ratioP2;P2;SDS_P1;SDS_P2;PMS_P1;PMS_P2;Temp;Humidity;BMP_temperature;BMP_pressure;BME280_temperature;BME280_humidity;BME280_pressure;Samples;Min_cycle;Max_cycle;Signal;HPM_P1;HPM_P2
2022/03/16 00:00:56;;;;;;;;;62.25;47.25;;;;;14.37;30.44;99150.94;6287665;27;97792;-64
2022/03/16 00:03:59;;;;;;;;;62.00;46.40;;;;;14.39;30.55;99148.00;6287948;27;97070;-63
2022/03/16 00:07:03;;;;;;;;;60.60;48.00;;;;;14.41;30.43;99143.19;6290105;27;97097;-63
2022/03/16 00:10:09;;;;;;;;;61.25;47.75;;;;;14.41;30.73;99138.59;6289833;27;96675;-63
2022/03/16 00:13:12;;;;;;;;;64.00;50.00;;;;;14.39;30.06;99119.00;6287316;27;98378;-63
2022/03/16 00:16:15;;;;;;;;;63.40;50.00;;;;;14.41;29.61;99124.19;6288152;27;97220;-64
2022/03/16 00:19:19;;;;;;;;;62.50;49.00;;;;;14.43;29.53;99120.16;6289155;27;97423;-63
2022/03/16 00:22:22;;;;;;;;;62.00;50.00;;;;;14.46;29.53;99122.41;6289308;27;97457;-63
2022/03/16 00:25:26;;;;;;;;;64.00;49.75;;;;;14.50;29.47;99120.03;6287776;27;97189;-63
2022/03/16 00:28:30;;;;;;;;;65.00;50.00;;;;;14.46;30.17;99111.56;6289418;27;97459;-63
2022/03/16 00:31:34;;;;;;;;;64.00;50.00;;;;;14.45;29.96;99117.22;6288401;27;97188;-63
2022/03/16 00:34:37;;;;;;;;;63.00;50.00;;;;;14.40;30.06;99112.50;6287535;27;97779;-64
2022/03/16 00:37:41;;;;;;;;;61.80;48.00;;;;;14.35;29.88;99119.69;6289420;27;97076;-64
2022/03/16 00:40:45;;;;;;;;;62.00;48.20;;;;;14.32;30.25;99104.69;6289650;27;97498;-63
2022/03/16 00:43:49;;;;;;;;;63.00;49.80;;;;;14.31;30.23;99114.75;6286874;27;97168;-63
2022/03/16 00:46:52;;;;;;;;;63.75;48.00;;;;;14.32;30.40;99107.41;6291270;27;97152;-64
2022/03/16 00:49:55;;;;;;;;;60.00;48.00;;;;;14.30;31.31;99112.28;6295772;27;96507;-63
2022/03/16 00:52:59;;;;;;;;;62.00;48.40;;;;;14.27;31.00;99102.72;6292152;27;96871;-63
2022/03/16 00:56:04;;;;;;;;;60.00;46.20;;;;;14.24;30.30;99107.81;6305422;27;96700;-64
2022/03/16 00:59:07;;;;;;;;;60.40;48.00;;;;;14.21;30.52;99090.13;6271052;27;98765;-64
2022/03/16 01:02:10;;;;;;;;;62.00;47.40;;;;;14.19;30.80;99086.81;6289058;27;96829;-64
2022/03/16 01:05:14;;;;;;;;;59.00;46.80;;;;;14.18;30.55;99085.19;6288515;27;96831;-64
2022/03/16 01:08:17;;;;;;;;;61.40;47.00;;;;;14.17;30.34;99086.22;6288053;27;97485;-64
2022/03/16 01:11:22;;;;;;;;;62.00;47.40;;;;;14.19;30.27;99091.44;6287193;27;97003;-64
2022/03/16 01:14:26;;;;;;;;;57.40;45.00;;;;;14.23;28.96;99088.00;6287446;27;97175;-64
2022/03/16 01:17:29;;;;;;;;;58.75;46.00;;;;;14.15;29.42;99099.22;6286400;27;97194;-64
2022/03/16 01:20:33;;;;;;;;;60.60;46.00;;;;;14.14;29.50;99094.03;6286261;27;97834;-64
2022/03/16 01:23:39;;;;;;;;;57.40;44.40;;;;;14.12;28.88;99090.75;6286918;27;96581;-64
2022/03/16 01:26:44;;;;;;;;;59.00;47.00;;;;;13.98;29.67;99084.75;6287935;27;98003;-64
2022/03/16 01:29:47;;;;;;;;;58.60;45.00;;;;;13.88;29.87;99073.69;6286535;27;97534;-64
2022/03/16 01:32:51;;;;;;;;;60.60;46.00;;;;;13.87;29.99;99072.06;6269111;27;99635;-63
2022/03/16 01:35:54;;;;;;;;;57.60;46.00;;;;;13.90;30.12;99068.88;6278494;27;96754;-64
2022/03/16 01:38:57;;;;;;;;;59.75;46.00;;;;;13.91;30.35;99081.38;6262728;27;97423;-64
2022/03/16 01:42:02;;;;;;;;;57.00;45.25;;;;;13.85;30.37;99057.91;6272391;27;97345;-64
2022/03/16 01:45:06;;;;;;;;;59.00;46.00;;;;;13.87;30.40;99059.34;6287097;27;96381;-63
2022/03/16 01:48:10;;;;;;;;;58.00;45.00;;;;;13.87;30.30;99064.75;6288283;27;96622;-63
2022/03/16 01:51:13;;;;;;;;;59.80;46.00;;;;;13.88;29.94;99077.22;6288222;27;97518;-64
2022/03/16 01:54:18;;;;;;;;;57.60;46.00;;;;;13.77;30.79;99085.38;6287751;27;97257;-63
2022/03/16 01:57:23;;;;;;;;;61.75;46.25;;;;;13.64;31.21;99091.84;6269831;27;96841;-64
2022/03/16 02:00:27;;;;;;;;;56.25;45.25;;;;;13.60;31.55;99090.69;6286937;27;97240;-63
2022/03/16 02:03:30;;;;;;;;;56.00;45.60;;;;;13.63;30.94;99082.09;6286307;27;97126;-64
2022/03/16 02:06:33;;;;;;;;;57.75;45.75;;;;;13.54;30.83;99067.25;6286530;27;96387;-63
2022/03/16 02:09:37;;;;;;;;;61.00;46.00;;;;;13.44;30.61;99072.44;6287141;27;96948;-63
2022/03/16 02:12:49;;;;;;;;;56.20;45.00;;;;;13.42;30.75;99074.56;6286067;27;97112;-63
2022/03/16 02:15:52;;;;;;;;;58.40;46.00;;;;;13.44;31.16;99070.56;6287710;27;96898;-64
2022/03/16 02:18:56;;;;;;;;;57.00;44.60;;;;;13.43;30.94;99070.81;6268968;27;98428;-63
2022/03/16 02:22:02;;;;;;;;;59.00;46.60;;;;;13.41;31.10;99067.50;6287029;27;96810;-64
2022/03/16 02:25:09;;;;;;;;;60.00;46.00;;;;;13.42;30.98;99059.16;6287228;27;97379;-64
2022/03/16 02:28:12;;;;;;;;;60.50;46.00;;;;;13.45;31.17;99057.84;6303678;27;97523;-64
2022/03/16 02:31:17;;;;;;;;;60.60;46.60;;;;;13.44;31.48;99059.72;6285848;27;96885;-62
2022/03/16 02:34:20;;;;;;;;;56.80;45.80;;;;;13.43;30.97;99052.69;6284721;27;97109;-63
2022/03/16 02:37:23;;;;;;;;;58.20;45.80;;;;;13.45;31.20;99055.13;6286885;27;97093;-63
2022/03/16 02:40:28;;;;;;;;;58.20;45.00;;;;;13.45;32.14;99060.53;6303359;27;96915;-63
2022/03/16 02:43:31;;;;;;;;;61.40;46.00;;;;;13.44;30.99;99057.00;6275252;27;96814;-63
2022/03/16 02:46:35;;;;;;;;;60.00;46.00;;;;;13.41;30.98;99060.19;6285306;27;97942;-63
2022/03/16 02:49:38;;;;;;;;;58.00;45.75;;;;;13.41;31.01;99064.78;6287373;27;98106;-63
2022/03/16 02:52:43;;;;;;;;;59.75;45.25;;;;;13.31;31.29;99059.97;6285592;27;97422;-64
2022/03/16 02:56:07;;;;;;;;;60.00;46.00;;;;;13.37;31.68;99075.28;6283531;27;96955;-63
2022/03/16 02:59:11;;;;;;;;;58.00;45.00;;;;;13.39;32.21;99066.91;6284218;27;96739;-63
2022/03/16 03:02:14;;;;;;;;;57.75;46.00;;;;;13.38;32.06;99074.22;6284132;27;97559;-63
2022/03/16 03:05:17;;;;;;;;;59.20;45.00;;;;;13.39;31.81;99070.44;6284746;27;97182;-62
2022/03/16 03:08:20;;;;;;;;;56.00;46.00;;;;;13.42;31.82;99074.56;6284832;27;96934;-64
2022/03/16 03:11:25;;;;;;;;;58.00;46.00;;;;;13.40;31.69;99066.66;6285872;27;97743;-63
2022/03/16 03:14:29;;;;;;;;;59.60;46.00;;;;;13.41;31.29;99068.31;6285283;27;99104;-64
2022/03/16 03:17:33;;;;;;;;;58.25;46.00;;;;;13.42;31.00;99064.56;6286167;27;96833;-63
2022/03/16 03:20:36;;;;;;;;;59.00;46.60;;;;;13.50;30.87;99066.06;6302928;27;97495;-64
2022/03/16 03:23:39;;;;;;;;;59.00;45.40;;;;;13.53;31.49;99065.63;6286407;27;97204;-63
2022/03/16 03:26:44;;;;;;;;;61.00;46.50;;;;;13.54;31.52;99072.66;6285360;27;96853;-64
2022/03/16 03:29:47;;;;;;;;;57.25;44.50;;;;;13.60;31.35;99069.03;6260442;27;98016;-63
2022/03/16 03:32:51;;;;;;;;;57.00;44.80;;;;;13.62;31.15;99066.09;6283715;27;98536;-64
2022/03/16 03:35:54;;;;;;;;;58.00;46.00;;;;;13.62;31.34;99071.50;6286276;27;97306;-63
2022/03/16 03:38:57;;;;;;;;;56.00;45.00;;;;;13.67;31.35;99072.44;6285853;27;97038;-63
2022/03/16 03:42:02;;;;;;;;;58.75;45.00;;;;;13.73;31.44;99070.69;6285281;27;97173;-63
2022/03/16 03:45:07;;;;;;;;;57.00;45.00;;;;;13.77;31.42;99078.09;6283250;27;96663;-64
2022/03/16 03:48:10;;;;;;;;;57.25;46.00;;;;;13.78;31.43;99063.44;6267378;27;98085;-64
2022/03/16 03:51:13;;;;;;;;;59.00;46.00;;;;;13.78;31.65;99085.13;6286632;27;97416;-64
2022/03/16 03:54:17;;;;;;;;;56.80;44.00;;;;;13.79;31.44;99083.25;6267238;27;96849;-64
2022/03/16 03:57:21;;;;;;;;;58.60;46.00;;;;;13.78;32.40;99087.03;6284205;27;97190;-63
2022/03/16 04:00:25;;;;;;;;;56.60;45.00;;;;;13.73;32.22;99078.81;6285006;27;97379;-63
2022/03/16 04:03:28;;;;;;;;;53.00;43.00;;;;;13.72;32.13;99082.56;6286439;27;96503;-63
2022/03/16 04:06:32;;;;;;;;;55.25;43.75;;;;;13.64;31.43;99061.22;6287123;27;97489;-63
2022/03/16 04:09:35;;;;;;;;;55.00;42.20;;;;;13.83;31.65;99092.53;6285724;27;96689;-63
2022/03/16 04:12:40;;;;;;;;;50.20;42.20;;;;;13.68;31.69;99065.94;6287608;27;97374;-62
2022/03/16 04:15:43;;;;;;;;;54.75;43.75;;;;;13.74;31.48;99075.84;6286669;27;96937;-63
2022/03/16 04:18:46;;;;;;;;;52.00;42.00;;;;;13.75;31.98;99073.94;6286717;27;96440;-62
2022/03/16 04:21:49;;;;;;;;;53.00;43.00;;;;;13.76;32.26;99081.03;6287502;27;96453;-63
2022/03/16 04:24:52;;;;;;;;;55.80;44.00;;;;;13.75;32.37;99088.31;6287087;27;96825;-65
2022/03/16 04:27:57;;;;;;;;;55.00;43.00;;;;;13.72;32.30;99077.97;6287142;27;97423;-63
2022/03/16 04:31:01;;;;;;;;;54.00;43.00;;;;;13.72;32.49;99079.84;6287308;27;97038;-63
2022/03/16 04:34:04;;;;;;;;;57.00;44.00;;;;;13.74;32.47;99077.72;6279461;27;97439;-62
2022/03/16 04:37:08;;;;;;;;;52.40;42.00;;;;;13.72;32.72;99080.69;6289515;27;96985;-62
2022/03/16 04:40:12;;;;;;;;;55.00;41.50;;;;;13.69;32.86;99083.84;6315398;27;97491;-63
2022/03/16 04:43:17;;;;;;;;;55.50;43.00;;;;;13.69;32.95;99091.97;6316164;27;96862;-63
2022/03/16 04:46:20;;;;;;;;;53.25;42.25;;;;;13.64;33.18;99089.16;6308986;27;97566;-63
2022/03/16 04:49:24;;;;;;;;;53.60;42.00;;;;;13.63;33.00;99090.22;6315496;27;97490;-63
2022/03/16 04:52:27;;;;;;;;;53.00;43.00;;;;;13.59;33.12;99091.75;6310414;27;97215;-63
2022/03/16 04:55:31;;;;;;;;;54.75;44.00;;;;;13.57;33.24;99093.88;6307739;27;97492;-62
2022/03/16 04:58:36;;;;;;;;;56.00;44.00;;;;;13.54;33.34;99085.38;6312817;27;97040;-63
2022/03/16 05:01:40;;;;;;;;;57.50;43.50;;;;;13.44;33.62;99094.94;6310576;27;96686;-64
2022/03/16 05:04:44;;;;;;;;;53.20;41.00;;;;;13.43;33.59;99104.13;6314654;27;97470;-63
2022/03/16 05:07:48;;;;;;;;;56.00;43.00;;;;;13.40;33.99;99101.88;6297479;27;96818;-62
2022/03/16 05:10:51;;;;;;;;;55.00;43.00;;;;;13.37;34.18;99091.53;6310014;27;96815;-63
2022/03/16 05:13:56;;;;;;;;;52.00;42.00;;;;;13.42;34.41;99101.66;6310916;27;96778;-62
2022/03/16 05:16:59;;;;;;;;;54.00;42.00;;;;;13.43;34.65;99098.72;6288499;27;98875;-62
2022/03/16 05:20:03;;;;;;;;;54.60;44.00;;;;;13.45;35.14;99110.13;6287233;27;98202;-64
2022/03/16 05:23:06;;;;;;;;;53.00;42.20;;;;;13.47;35.31;99107.19;6311324;27;96875;-64
2022/03/16 05:26:10;;;;;;;;;52.00;42.80;;;;;13.50;34.96;99109.41;6310038;27;96737;-64
2022/03/16 05:29:14;;;;;;;;;50.40;40.00;;;;;13.58;35.11;99106.38;6294364;27;97219;-66
2022/03/16 05:32:17;;;;;;;;;52.00;40.00;;;;;13.66;35.07;99105.19;6312818;27;97731;-65
2022/03/16 05:35:21;;;;;;;;;48.60;38.40;;;;;13.70;35.23;99103.63;6277493;27;98389;-64
2022/03/16 05:38:25;;;;;;;;;49.00;37.60;;;;;13.77;35.50;99109.78;6313646;27;96566;-64
2022/03/16 05:41:28;;;;;;;;;45.40;35.00;;;;;13.84;35.71;99111.28;6315557;27;97974;-64
2022/03/16 05:44:32;;;;;;;;;42.00;35.00;;;;;13.91;35.52;99111.19;6296004;27;96774;-63
2022/03/16 05:47:37;;;;;;;;;46.00;36.00;;;;;13.99;35.34;99110.81;6309577;27;97386;-63
2022/03/16 05:50:44;;;;;;;;;44.25;34.00;;;;;14.00;35.19;99112.44;6291757;27;98336;-63
2022/03/16 05:53:47;;;;;;;;;44.50;36.00;;;;;13.98;35.77;99120.00;6309557;27;97837;-64
2022/03/16 05:56:51;;;;;;;;;42.50;34.75;;;;;13.96;35.95;99124.00;6312084;27;96586;-64
2022/03/16 05:59:55;;;;;;;;;44.80;35.80;;;;;13.99;36.12;99126.25;6308636;27;97257;-64
2022/03/16 06:02:59;;;;;;;;;44.00;35.00;;;;;13.94;36.40;99120.69;6308825;27;97496;-64
2022/03/16 06:06:03;;;;;;;;;43.00;34.00;;;;;13.84;36.99;99129.44;6310496;27;97055;-64
2022/03/16 06:09:06;;;;;;;;;44.00;36.00;;;;;13.87;36.82;99135.22;6308526;27;97290;-65
2022/03/16 06:12:10;;;;;;;;;47.60;38.20;;;;;13.87;37.24;99137.09;6304052;27;97444;-64
2022/03/16 06:15:15;;;;;;;;;48.60;38.20;;;;;13.86;37.32;99138.16;6292528;27;99616;-65
2022/03/16 06:18:18;;;;;;;;;45.60;37.00;;;;;13.74;37.54;99126.50;6291584;27;98342;-65
2022/03/16 06:21:21;;;;;;;;;49.40;37.40;;;;;13.73;38.08;99144.63;6310946;27;98101;-65
2022/03/16 06:24:24;;;;;;;;;45.00;36.00;;;;;13.68;39.15;99147.22;6310986;27;96481;-64
2022/03/16 06:27:29;;;;;;;;;38.40;33.00;;;;;13.66;39.98;99152.06;6311080;27;97282;-64
2022/03/16 06:30:34;;;;;;;;;38.25;33.00;;;;;13.67;40.25;99150.19;6308358;27;97680;-64
2022/03/16 06:33:37;;;;;;;;;36.20;32.00;;;;;13.69;40.61;99156.19;6275838;27;96948;-64
2022/03/16 06:36:40;;;;;;;;;36.80;31.80;;;;;13.71;40.66;99154.06;6312981;27;97772;-64
2022/03/16 06:39:43;;;;;;;;;40.40;33.00;;;;;13.63;40.93;99149.84;6297856;27;96968;-64
2022/03/16 06:42:49;;;;;;;;;37.00;32.00;;;;;13.57;41.61;99158.91;6307077;27;97139;-64
2022/03/16 06:45:54;;;;;;;;;34.00;30.40;;;;;13.56;41.91;99165.38;6314116;27;96508;-64
2022/03/16 06:48:58;;;;;;;;;33.25;30.50;;;;;13.65;41.73;99161.25;6310406;27;96603;-64
2022/03/16 06:52:01;;;;;;;;;31.00;28.60;;;;;13.67;41.99;99163.72;6288023;27;97132;-64
2022/03/16 06:55:05;;;;;;;;;31.00;29.00;;;;;13.63;42.37;99159.84;6306712;27;96325;-64
2022/03/16 06:58:09;;;;;;;;;34.00;30.00;;;;;13.62;42.59;99145.47;6295399;27;96376;-64
2022/03/16 07:01:13;;;;;;;;;33.60;30.00;;;;;13.64;42.85;99151.47;6288008;27;97840;-64
2022/03/16 07:04:17;;;;;;;;;27.60;25.00;;;;;13.72;42.89;99156.56;6296045;27;97429;-64
2022/03/16 07:07:20;;;;;;;;;30.50;27.00;;;;;13.76;42.88;99162.31;6293900;27;96751;-64
2022/03/16 07:10:23;;;;;;;;;30.00;27.50;;;;;13.94;42.45;99161.34;6313410;27;96434;-65
2022/03/16 07:13:26;;;;;;;;;29.00;25.00;;;;;14.02;42.67;99172.69;6313868;27;96396;-64
2022/03/16 07:16:32;;;;;;;;;28.00;25.00;;;;;14.09;42.33;99188.81;6313158;27;97580;-65
2022/03/16 07:19:36;;;;;;;;;22.60;21.20;;;;;14.13;42.60;99192.69;6286911;27;99369;-64
2022/03/16 07:22:40;;;;;;;;;26.00;22.25;;;;;14.14;42.77;99199.78;6304189;27;96575;-64
2022/03/16 07:25:58;;;;;;;;;28.67;25.00;;;;;14.24;42.75;99191.88;6313803;27;97090;-64
2022/03/16 07:29:02;;;;;;;;;29.00;24.20;;;;;14.29;42.23;99203.66;6272253;27;96549;-64
2022/03/16 07:32:08;;;;;;;;;25.00;22.00;;;;;14.27;42.63;99213.06;6277851;27;96561;-64
2022/03/16 07:35:12;;;;;;;;;26.80;23.20;;;;;14.31;42.47;99219.69;6313350;27;96650;-64
2022/03/16 07:38:17;;;;;;;;;23.40;22.40;;;;;14.30;42.64;99223.47;6293369;27;98347;-64
2022/03/16 07:41:20;;;;;;;;;22.40;21.60;;;;;14.41;42.44;99229.97;6313184;27;97515;-64
2022/03/16 07:44:23;;;;;;;;;24.20;21.20;;;;;14.46;42.49;99230.09;6293449;27;97236;-64
2022/03/16 07:47:29;;;;;;;;;25.00;23.00;;;;;14.59;42.16;99237.97;6281982;27;97838;-64
2022/03/16 07:50:41;;;;;;;;;25.00;22.60;;;;;14.52;42.40;99240.78;6292825;27;97947;-64
2022/03/16 07:53:45;;;;;;;;;25.80;23.20;;;;;14.44;42.85;99243.88;6292684;27;97527;-65
2022/03/16 07:56:48;;;;;;;;;21.50;19.50;;;;;14.39;43.31;99246.47;6304136;27;97524;-64
2022/03/16 07:59:51;;;;;;;;;24.40;21.00;;;;;14.39;42.96;99254.63;6294235;27;97031;-64
2022/03/16 08:02:56;;;;;;;;;23.60;21.60;;;;;14.42;42.91;99251.41;6291472;27;99524;-64
2022/03/16 08:05:59;;;;;;;;;23.00;22.25;;;;;14.49;42.94;99257.56;6303507;27;96603;-64
2022/03/16 08:09:02;;;;;;;;;24.40;22.40;;;;;14.55;43.16;99253.91;6293245;27;97817;-64
2022/03/16 08:12:06;;;;;;;;;24.00;22.00;;;;;14.68;42.50;99253.63;6313268;27;97175;-65
2022/03/16 08:15:10;;;;;;;;;23.80;21.20;;;;;14.64;42.43;99238.91;6311906;27;97063;-64
2022/03/16 08:18:14;;;;;;;;;23.00;20.60;;;;;14.73;42.12;99250.19;6315742;27;96638;-63
2022/03/16 08:21:18;;;;;;;;;21.25;20.00;;;;;14.85;42.22;99269.19;6297210;27;97697;-64
2022/03/16 08:24:21;;;;;;;;;24.60;20.20;;;;;14.97;42.11;99265.34;6281330;27;97826;-64
2022/03/16 08:27:44;;;;;;;;;27.50;23.50;;;;;15.06;41.26;99261.19;6315098;27;96652;-64
2022/03/16 08:30:47;;;;;;;;;24.00;23.00;;;;;15.21;40.93;99260.66;6271166;27;96603;-64
2022/03/16 08:33:52;;;;;;;;;27.40;24.00;;;;;15.38;40.75;99266.97;6293169;27;98476;-65
2022/03/16 08:36:55;;;;;;;;;27.60;24.20;;;;;15.51;40.10;99261.28;6271098;27;98602;-64
2022/03/16 08:39:58;;;;;;;;;24.00;21.60;;;;;15.69;39.99;99270.25;6310709;27;96560;-64
2022/03/16 08:43:02;;;;;;;;;25.00;23.00;;;;;15.87;39.70;99270.03;6315982;27;97377;-64
2022/03/16 08:46:05;;;;;;;;;24.60;21.00;;;;;16.23;38.28;99264.09;6296916;27;96680;-64
2022/03/16 08:49:10;;;;;;;;;25.00;23.00;;;;;16.86;36.94;99268.25;6316344;27;96520;-64
2022/03/16 08:52:13;;;;;;;;;25.50;24.00;;;;;17.84;35.38;99269.09;6298073;27;97406;-64
2022/03/16 08:55:17;;;;;;;;;27.00;22.00;;;;;18.09;34.79;99275.56;6316513;27;96453;-64
2022/03/16 08:58:20;;;;;;;;;25.60;23.80;;;;;18.43;33.76;99272.50;6296691;27;96706;-64
2022/03/16 09:01:23;;;;;;;;;25.80;22.80;;;;;18.44;33.78;99272.25;6297156;27;97401;-65
2022/03/16 09:04:28;;;;;;;;;24.40;23.00;;;;;18.28;33.85;99278.69;6331495;27;97106;-65
2022/03/16 09:07:32;;;;;;;;;25.00;23.00;;;;;18.10;34.30;99282.66;6319418;27;97759;-64
2022/03/16 09:10:36;;;;;;;;;26.00;24.00;;;;;18.01;34.14;99286.97;6296704;27;96729;-64
2022/03/16 09:13:40;;;;;;;;;30.00;28.00;;;;;18.02;34.37;99296.78;6316001;27;96940;-64
2022/03/16 09:16:45;;;;;;;;;28.00;24.00;;;;;18.42;34.23;99303.66;6296864;27;97518;-64
2022/03/16 09:19:52;;;;;;;;;27.60;24.00;;;;;19.23;32.47;99298.63;6296838;27;98457;-65
2022/03/16 09:22:55;;;;;;;;;25.00;23.00;;;;;20.12;31.29;99303.75;6295828;27;97868;-65
2022/03/16 09:25:59;;;;;;;;;25.20;23.20;;;;;20.12;31.27;99301.03;6297272;27;98337;-65
2022/03/16 09:29:02;;;;;;;;;29.00;25.50;;;;;20.01;30.43;99305.66;6315512;27;97472;-65
2022/03/16 09:32:07;;;;;;;;;27.00;24.00;;;;;19.83;30.94;99317.97;6315143;27;98050;-65
2022/03/16 09:35:12;;;;;;;;;28.75;25.25;;;;;19.85;30.79;99323.97;6316065;27;96476;-65
2022/03/16 09:38:16;;;;;;;;;28.00;25.40;;;;;20.03;30.67;99325.38;6314935;27;96726;-64
2022/03/16 09:41:21;;;;;;;;;27.50;25.50;;;;;20.04;30.70;99339.88;6314859;27;96525;-65
2022/03/16 09:44:25;;;;;;;;;30.00;26.40;;;;;19.81;30.52;99339.31;6315976;27;97578;-65
2022/03/16 09:47:30;;;;;;;;;34.00;30.00;;;;;19.63;30.57;99349.94;6313988;27;96451;-65
2022/03/16 09:50:37;;;;;;;;;28.20;27.00;;;;;19.51;30.73;99352.06;6296760;27;97409;-65
2022/03/16 09:53:41;;;;;;;;;35.00;30.00;;;;;19.54;30.89;99351.56;6314915;27;97077;-65
2022/03/16 09:56:45;;;;;;;;;31.40;30.00;;;;;19.57;30.25;99354.56;6295285;27;96732;-65
2022/03/16 09:59:49;;;;;;;;;35.60;30.00;;;;;19.66;29.94;99358.41;6314403;27;97056;-64
2022/03/16 10:02:55;;;;;;;;;36.67;32.00;;;;;19.77;30.06;99353.78;6295265;27;98758;-64
2022/03/16 10:06:00;;;;;;;;;36.00;32.00;;;;;19.76;29.33;99357.63;6314893;27;96380;-65
2022/03/16 10:16:10;;;;;;;;;32.60;28.60;;;;;20.21;29.07;99387.00;6300985;27;97454;-65
2022/03/16 10:19:14;;;;;;;;;35.50;30.50;;;;;20.39;27.21;99389.22;6311642;27;97551;-64
2022/03/16 10:22:26;;;;;;;;;33.00;30.40;;;;;20.24;27.77;99386.44;6312563;27;96564;-65
2022/03/16 10:25:31;;;;;;;;;34.75;30.75;;;;;20.17;28.33;99378.50;6313671;27;97350;-65
2022/03/16 10:28:36;;;;;;;;;33.50;30.00;;;;;20.89;27.51;99387.53;6278047;27;99549;-66
2022/03/16 10:31:39;;;;;;;;;33.00;30.00;;;;;21.43;27.30;99377.53;6313594;27;97368;-66
2022/03/16 10:34:50;;;;;;;;;33.80;30.00;;;;;21.73;26.84;99381.25;6313369;27;97401;-66
2022/03/16 10:38:07;;;;;;;;;31.00;29.00;;;;;22.15;26.47;99388.97;6308483;27;96695;-66
2022/03/16 10:41:14;;;;;;;;;32.80;30.00;;;;;22.93;25.93;99397.97;6310495;27;96691;-64
2022/03/16 10:47:50;;;;;;;;;34.20;31.80;;;;;24.00;24.03;99406.59;6294366;27;97969;-66
2022/03/16 10:50:57;;;;;;;;;35.00;31.00;;;;;24.62;23.27;99401.84;6288537;27;97498;-66
2022/03/16 10:54:05;;;;;;;;;32.40;30.00;;;;;24.84;22.82;99395.66;6283192;27;97026;-66
2022/03/16 10:57:13;;;;;;;;;35.40;31.80;;;;;24.64;22.30;99402.34;6292403;27;98504;-65
2022/03/16 11:00:17;;;;;;;;;35.60;30.80;;;;;24.53;22.82;99411.94;6289532;27;98397;-66
2022/03/16 11:03:23;;;;;;;;;35.00;32.40;;;;;24.10;22.95;99414.72;6313271;27;96806;-65
2022/03/16 11:06:26;;;;;;;;;36.00;32.60;;;;;23.80;23.11;99420.66;6312034;27;97442;-65
2022/03/16 11:09:32;;;;;;;;;39.75;34.00;;;;;23.47;23.06;99427.13;6292376;27;96853;-65
2022/03/16 11:16:00;;;;;;;;;37.00;32.80;;;;;22.84;22.19;99433.53;6311368;27;97628;-65
2022/03/16 11:19:05;;;;;;;;;44.80;36.00;;;;;22.64;22.49;99428.16;6289420;27;98514;-65
2022/03/16 11:22:13;;;;;;;;;39.80;33.40;;;;;23.13;22.62;99441.78;6292680;27;96951;-65
2022/03/16 11:25:19;;;;;;;;;41.60;35.00;;;;;23.56;21.76;99434.44;6291692;27;97165;-65
2022/03/16 11:28:35;;;;;;;;;44.50;35.25;;;;;23.65;20.96;99438.19;6307945;27;96718;-65
2022/03/16 11:31:42;;;;;;;;;43.40;33.60;;;;;23.83;21.66;99438.53;6291194;27;96778;-67
2022/03/16 11:34:50;;;;;;;;;44.20;35.20;;;;;23.88;20.96;99441.22;6308428;27;97555;-66
2022/03/16 11:37:53;;;;;;;;;46.80;37.00;;;;;24.32;21.35;99438.97;6310230;27;98092;-66
2022/03/16 11:40:58;;;;;;;;;42.00;35.00;;;;;24.89;21.15;99439.72;6310853;27;97141;-66
2022/03/16 11:44:26;;;;;;;;;43.25;35.75;;;;;25.10;20.87;99443.78;6307102;27;97137;-66
2022/03/16 11:47:35;;;;;;;;;44.40;36.00;;;;;25.60;20.23;99430.16;6317311;27;97417;-66
2022/03/16 11:50:38;;;;;;;;;42.40;36.00;;;;;26.01;19.63;99441.16;6315915;27;96761;-66
2022/03/16 11:54:12;;;;;;;;;46.00;36.00;;;;;26.11;19.11;99427.94;6318552;27;96765;-66
2022/03/16 11:57:37;;;;;;;;;45.00;37.60;;;;;25.92;19.02;99438.31;6319055;27;96533;-65
2022/03/16 12:00:40;;;;;;;;;47.00;39.00;;;;;26.03;19.21;99436.97;6316413;27;97639;-65
2022/03/16 12:03:44;;;;;;;;;52.00;40.00;;;;;26.34;18.80;99439.88;6315248;27;97460;-65
2022/03/16 12:06:54;;;;;;;;;49.80;39.20;;;;;25.76;18.88;99443.31;6317654;27;97341;-65
2022/03/16 12:10:03;;;;;;;;;49.67;40.00;;;;;25.55;18.84;99427.50;6318355;27;96808;-65
2022/03/16 12:13:12;;;;;;;;;50.40;40.00;;;;;25.51;18.90;99446.56;6316439;27;97279;-66
2022/03/16 12:16:19;;;;;;;;;49.00;40.00;;;;;25.03;19.41;99444.16;6295742;27;98738;-66
2022/03/16 12:19:30;;;;;;;;;49.60;40.00;;;;;24.55;19.52;99448.25;6289538;27;100501;-66
2022/03/16 12:22:37;;;;;;;;;50.40;40.00;;;;;24.27;20.40;99450.06;6319375;27;97379;-65
2022/03/16 12:25:42;;;;;;;;;47.80;39.00;;;;;24.37;20.28;99447.16;6318694;27;97007;-66
2022/03/16 12:28:56;;;;;;;;;48.50;39.00;;;;;24.54;19.85;99446.63;6299346;27;96858;-65
2022/03/16 12:32:00;;;;;;;;;44.25;35.75;;;;;24.63;20.35;99450.31;6319274;27;96484;-65
2022/03/16 12:35:04;;;;;;;;;43.40;36.00;;;;;24.68;20.74;99449.47;6318139;27;97448;-65
2022/03/16 12:38:10;;;;;;;;;41.80;35.40;;;;;24.95;20.67;99455.91;6318654;27;97483;-66
2022/03/16 12:44:45;;;;;;;;;42.00;35.80;;;;;24.50;21.34;99468.47;6290720;27;97244;-66
2022/03/16 12:48:03;;;;;;;;;42.00;35.00;;;;;24.03;21.45;99468.56;6320049;27;96962;-66
2022/03/16 12:51:06;;;;;;;;;43.60;35.00;;;;;23.91;21.75;99468.16;6294107;27;97382;-66
2022/03/16 12:54:10;;;;;;;;;45.40;36.00;;;;;24.12;21.76;99481.38;6318712;27;97437;-66
2022/03/16 12:57:15;;;;;;;;;44.25;36.25;;;;;23.88;22.07;99477.84;6299245;27;97655;-65
2022/03/16 13:00:20;;;;;;;;;46.80;37.00;;;;;23.70;22.27;99473.91;6312838;27;97909;-65
2022/03/16 13:03:24;;;;;;;;;45.00;36.00;;;;;24.02;22.01;99475.19;6299426;27;96627;-66
2022/03/16 13:06:33;;;;;;;;;43.00;35.00;;;;;24.30;22.08;99474.25;6302413;27;97703;-66
2022/03/16 13:09:38;;;;;;;;;39.60;34.00;;;;;24.35;21.75;99479.72;6309453;27;96807;-65
2022/03/16 13:12:56;;;;;;;;;39.60;33.60;;;;;24.36;21.54;99480.53;6287672;27;97312;-65
2022/03/16 13:16:02;;;;;;;;;39.00;33.60;;;;;24.52;21.68;99485.53;6313778;27;97103;-65
2022/03/16 13:19:08;;;;;;;;;44.80;35.00;;;;;24.75;21.41;99482.97;6294143;27;97277;-66
2022/03/16 13:22:13;;;;;;;;;35.60;31.60;;;;;24.59;20.75;99485.13;6293944;27;97224;-65
2022/03/16 13:25:16;;;;;;;;;34.00;31.25;;;;;24.28;21.63;99478.44;6293229;27;97869;-65
2022/03/16 13:28:20;;;;;;;;;31.00;30.00;;;;;24.22;21.84;99494.22;6294795;27;97119;-65
2022/03/16 13:31:27;;;;;;;;;33.00;28.40;;;;;24.16;21.67;99495.38;6277662;27;98181;-65
2022/03/16 13:34:33;;;;;;;;;30.80;27.80;;;;;23.90;22.03;99492.13;6311612;27;97287;-66
2022/03/16 13:37:37;;;;;;;;;31.50;29.00;;;;;23.47;21.89;99495.94;6290013;27;99737;-65
2022/03/16 13:40:42;;;;;;;;;33.60;30.00;;;;;23.09;22.55;99498.47;6314383;27;97549;-66
2022/03/16 13:43:45;;;;;;;;;31.00;28.50;;;;;22.80;23.12;99501.19;6295024;27;96936;-66
2022/03/16 13:46:50;;;;;;;;;30.40;28.00;;;;;22.48;22.78;99498.09;6292082;27;97415;-66
2022/03/16 13:49:56;;;;;;;;;28.50;26.25;;;;;22.08;23.60;99506.56;6294475;27;97141;-66
2022/03/16 13:53:12;;;;;;;;;26.20;25.00;;;;;21.64;23.99;99511.91;6296201;27;97044;-66
2022/03/16 13:56:17;;;;;;;;;30.00;26.00;;;;;21.45;23.85;99509.75;6293293;27;99632;-65
2022/03/16 13:59:21;;;;;;;;;27.75;24.25;;;;;21.30;23.78;99518.03;6314291;27;96849;-65
2022/03/16 14:02:30;;;;;;;;;31.40;25.80;;;;;21.15;23.76;99524.34;6302226;27;96766;-66
2022/03/16 14:05:39;;;;;;;;;26.80;24.20;;;;;21.21;23.76;99527.88;6294577;27;96740;-65
2022/03/16 14:08:42;;;;;;;;;31.67;28.00;;;;;21.21;23.92;99530.63;6292141;27;97507;-64
2022/03/16 14:11:46;;;;;;;;;25.20;22.60;;;;;21.39;23.96;99530.09;6312044;27;97720;-64
2022/03/16 14:14:59;;;;;;;;;30.75;28.00;;;;;21.53;23.86;99533.88;6313999;27;97559;-65
2022/03/16 14:18:12;;;;;;;;;30.00;26.00;;;;;21.35;23.70;99533.66;6314798;27;96397;-64
2022/03/16 14:21:15;;;;;;;;;28.60;26.00;;;;;21.22;24.23;99542.41;6313697;27;97254;-65
2022/03/16 14:24:18;;;;;;;;;29.00;27.75;;;;;21.33;23.75;99541.31;6315035;27;97003;-64
2022/03/16 14:27:26;;;;;;;;;25.40;23.20;;;;;21.56;23.15;99546.22;6296092;27;99447;-64